Time;durP1;ratioP1;P1;durP2;ratioP2;P2;SDS_P1;SDS_P2;PMS_P1;PMS_P2;Temp;Humidity;BMP_temperature;BMP_pressure;BME280_temperature;BME280_humidity;BME280_pressure;Samples;Min_cycle;Max_cycle;Signal;HPM_P1;HPM_P2
2022/12/13 00:01:51;;;;;;;20.48;10.05;;;;;;;3.17;50.36;100935.34;4969338;28;100904;-64
2022/12/13 00:04:18;;;;;;;20.73;10.48;;;;;;;3.09;50.44;100937.09;4962203;28;101314;-64
2022/12/13 00:06:45;;;;;;;22.77;10.63;;;;;;;3.06;50.98;100937.13;4961406;28;97655;-64
2022/12/13 00:09:13;;;;;;;22.33;11.00;;;;;;;3.05;51.23;100935.38;4959295;28;98451;-64
2022/12/13 00:11:40;;;;;;;24.13;11.57;;;;;;;2.97;51.19;100935.38;4962093;28;99480;-64
2022/12/13 00:14:06;;;;;;;26.70;10.93;;;;;;;3.22;50.80;100932.75;4957713;28;98848;-64
2022/12/13 00:16:33;;;;;;;20.85;10.57;;;;;;;3.27;50.56;100934.47;4963414;28;96857;-65
2022/12/13 00:19:01;;;;;;;21.65;10.98;;;;;;;2.94;51.30;100937.13;4961910;28;97747;-62
2022/12/13 00:21:30;;;;;;;24.33;11.27;;;;;;;3.34;50.48;100941.41;4968392;28;98962;-63
2022/12/13 00:23:56;;;;;;;22.27;11.77;;;;;;;3.19;51.00;100929.25;4960368;28;99299;-63
2022/12/13 00:26:26;;;;;;;21.77;10.80;;;;;;;3.38;50.51;100924.84;4961204;28;98852;-64
2022/12/13 00:28:53;;;;;;;24.92;12.15;;;;;;;3.03;51.51;100924.06;4965786;28;97575;-63
2022/12/13 00:31:21;;;;;;;27.50;12.23;;;;;;;3.20;51.07;100927.50;4966857;28;97784;-63
2022/12/13 00:33:48;;;;;;;24.98;11.30;;;;;;;3.40;50.63;100920.50;4962374;28;99449;-65
2022/12/13 00:36:16;;;;;;;24.30;11.10;;;;;;;3.03;51.41;100919.69;4970409;28;96720;-64
2022/12/13 00:38:43;;;;;;;24.58;12.00;;;;;;;2.90;52.21;100910.16;4974354;28;96836;-63
2022/12/13 00:41:12;;;;;;;26.08;12.93;;;;;;;3.06;51.74;100911.88;4963328;28;99214;-63
2022/12/13 00:43:38;;;;;;;22.98;10.85;;;;;;;3.15;51.70;100911.00;4970593;28;99181;-63
2022/12/13 00:46:06;;;;;;;22.95;12.05;;;;;;;3.12;51.74;100908.38;4966922;28;96741;-64
2022/12/13 00:48:33;;;;;;;23.92;11.23;;;;;;;2.95;51.56;100899.72;4969293;28;96738;-64
2022/12/13 00:50:59;;;;;;;21.17;10.98;;;;;;;3.49;50.24;100899.53;4970034;28;99363;-64
2022/12/13 00:53:27;;;;;;;21.33;10.52;;;;;;;3.89;48.68;100894.09;4969289;28;98887;-65
2022/12/13 00:55:53;;;;;;;21.77;10.98;;;;;;;3.30;50.01;100903.09;4969785;28;96726;-64
2022/12/13 00:58:20;;;;;;;20.23;10.98;;;;;;;3.60;49.67;100905.59;4968605;28;96834;-64
2022/12/13 01:00:47;;;;;;;20.98;9.93;;;;;;;3.66;48.62;100901.22;4965915;28;99140;-64
2022/12/13 01:03:20;;;;;;;21.48;11.40;;;;;;;3.59;49.10;100890.78;4963921;28;98703;-64
2022/12/13 01:05:46;;;;;;;22.10;9.95;;;;;;;3.72;48.55;100902.06;4972298;28;96674;-64
2022/12/13 01:08:13;;;;;;;18.25;9.93;;;;;;;3.35;49.35;100901.31;4964288;28;98893;-63
2022/12/13 01:10:44;;;;;;;20.80;10.52;;;;;;;3.65;48.97;100896.84;4966587;28;98975;-63
2022/12/13 01:13:10;;;;;;;20.40;10.45;;;;;;;3.84;48.58;100903.72;4964546;28;97697;-65
2022/12/13 01:15:40;;;;;;;22.92;10.20;;;;;;;3.68;48.45;100895.09;4958891;28;96749;-63
2022/12/13 01:18:07;;;;;;;21.10;10.20;;;;;;;3.57;48.91;100902.13;4964249;28;96923;-63
2022/12/13 01:20:33;;;;;;;21.05;10.63;;;;;;;3.68;48.61;100900.31;4961213;28;99344;-63
2022/12/13 01:23:00;;;;;;;20.65;10.40;;;;;;;3.79;48.48;100898.53;4968199;28;100433;-64
2022/12/13 01:25:26;;;;;;;21.42;10.23;;;;;;;3.78;48.48;100898.53;4971287;28;96983;-65
2022/12/13 01:27:54;;;;;;;22.67;10.18;;;;;;;3.56;48.50;100900.38;4968807;28;97009;-63
2022/12/13 01:30:21;;;;;;;18.83;10.02;;;;;;;3.73;48.74;100893.34;4964794;28;99153;-63
2022/12/13 01:32:47;;;;;;;21.83;11.20;;;;;;;3.43;49.17;100903.91;4961396;28;99200;-64
2022/12/13 01:35:14;;;;;;;22.17;11.27;;;;;;;3.49;49.22;100896.03;4968953;28;96884;-63
2022/12/13 01:37:41;;;;;;;22.48;10.88;;;;;;;3.57;49.68;100899.50;4967084;28;97610;-63
2022/12/13 01:40:10;;;;;;;24.60;11.02;;;;;;;3.58;49.45;100896.88;4965590;28;99380;-64
2022/12/13 01:42:37;;;;;;;25.90;11.65;;;;;;;3.67;49.26;100895.13;4960623;28;98924;-64
2022/12/13 01:45:17;;;;;;;27.38;12.20;;;;;;;3.74;49.25;100888.97;4961193;28;98255;-65
2022/12/13 01:47:46;;;;;;;24.05;11.80;;;;;;;3.69;49.42;100886.38;4964500;28;99174;-64
2022/12/13 01:50:16;;;;;;;25.40;11.63;;;;;;;3.74;49.81;100881.16;4962051;28;99276;-64
2022/12/13 01:52:45;;;;;;;26.25;11.50;;;;;;;3.49;49.85;100898.66;4969479;28;100050;-64
2022/12/13 01:55:13;;;;;;;25.23;11.82;;;;;;;3.49;50.13;100893.44;4960067;28;97283;-64
2022/12/13 01:57:44;;;;;;;25.60;11.80;;;;;;;3.76;49.81;100887.22;4966429;28;96997;-64
2022/12/13 02:00:13;;;;;;;21.83;10.88;;;;;;;3.79;49.64;100879.38;4962549;28;98876;-71
2022/12/13 02:02:40;;;;;;;23.42;11.55;;;;;;;3.52;49.98;100883.00;4961093;28;98746;-71
2022/12/13 02:05:10;;;;;;;25.10;12.30;;;;;;;3.14;50.84;100891.84;4965113;28;98802;-71
2022/12/13 02:07:39;;;;;;;25.92;11.75;;;;;;;3.54;50.14;100884.69;4962325;28;97700;-71
2022/12/13 02:10:08;;;;;;;20.52;9.65;;;;;;;3.64;49.68;100889.88;4962808;28;98922;-70
2022/12/13 02:12:37;;;;;;;24.90;10.70;;;;;;;3.81;49.18;100883.69;4965756;28;99089;-70
2022/12/13 02:15:10;;;;;;;20.80;10.98;;;;;;;3.90;49.62;100882.78;4960808;28;98440;-71
2022/12/13 02:17:51;;;;;;;24.45;11.20;;;;;;;3.64;49.89;100877.69;4967936;28;97621;-71
2022/12/13 02:20:37;;;;;;;20.98;10.73;;;;;;;3.37;50.59;100886.53;4962842;28;99023;-64
2022/12/13 02:23:54;;;;;;;25.90;11.73;;;;;;;3.44;50.47;100885.63;4959727;28;97540;-64
2022/12/13 02:27:14;;;;;;;22.70;10.68;;;;;;;3.61;50.10;100880.31;4906704;28;96985;-65
2022/12/13 02:30:09;;;;;;;22.85;10.02;;;;;;;3.61;49.73;100891.63;4888351;28;97096;-64
2022/12/13 02:32:41;;;;;;;23.27;10.65;;;;;;;3.75;49.51;100880.25;4885431;28;98967;-64
2022/12/13 02:35:12;;;;;;;22.73;10.48;;;;;;;3.74;49.20;100878.53;4943068;28;98987;-65
2022/12/13 02:37:51;;;;;;;24.02;11.27;;;;;;;3.67;49.71;100872.47;4968986;28;97074;-64
2022/12/13 02:40:23;;;;;;;22.38;9.90;;;;;;;3.65;49.78;100866.38;4969641;28;96799;-64
2022/12/13 02:42:57;;;;;;;26.75;11.93;;;;;;;3.77;50.10;100870.66;4967109;28;100995;-65
2022/12/13 02:45:29;;;;;;;23.63;11.50;;;;;;;3.70;50.04;100882.88;4967988;28;98882;-64
2022/12/13 02:48:01;;;;;;;22.45;10.50;;;;;;;3.73;49.91;100882.00;4969083;28;98667;-65
2022/12/13 02:50:29;;;;;;;25.75;11.90;;;;;;;3.44;50.58;100879.53;4965984;28;98742;-64
2022/12/13 02:52:56;;;;;;;27.02;11.98;;;;;;;3.45;50.81;100871.69;4964152;28;97840;-65
2022/12/13 02:55:23;;;;;;;26.05;12.40;;;;;;;3.64;50.49;100877.69;4967525;28;98920;-65
2022/12/13 02:57:50;;;;;;;25.83;12.75;;;;;;;3.73;50.58;100874.19;4957824;28;96665;-65
2022/12/13 03:00:20;;;;;;;27.65;12.45;;;;;;;3.19;51.65;100870.94;4970714;28;96834;-64
2022/12/13 03:03:05;;;;;;;27.23;12.38;;;;;;;3.16;51.69;100874.41;4965863;28;99011;-64
2022/12/13 03:08:26;;;;;;;25.70;12.52;;;;;;;3.29;51.62;100867.41;4969303;28;96839;-64
2022/12/13 03:11:05;;;;;;;25.95;12.48;;;;;;;3.44;51.21;100863.84;4966200;28;96802;-63
2022/12/13 03:13:38;;;;;;;25.38;12.05;;;;;;;3.65;50.43;100865.50;4965324;28;99264;-63
2022/12/13 03:16:11;;;;;;;16.58;7.90;;;;;;;3.07;51.04;100865.75;4964988;28;101215;-63
2022/12/13 03:18:41;;;;;;;26.02;11.38;;;;;;;3.18;50.95;100866.56;4968883;28;97308;-63
2022/12/13 03:21:09;;;;;;;26.33;12.10;;;;;;;3.29;51.40;100875.22;4967442;28;96882;-62
2022/12/13 03:23:36;;;;;;;24.63;12.90;;;;;;;3.46;51.05;100876.06;4961974;28;98916;-63
2022/12/13 03:26:07;;;;;;;31.58;12.75;;;;;;;3.37;50.57;100878.69;4966799;28;99036;-64
2022/12/13 03:28:33;;;;;;;23.45;11.20;;;;;;;3.63;50.06;100864.63;4962561;28;96866;-63
2022/12/13 03:31:00;;;;;;;25.67;11.75;;;;;;;3.42;50.57;100871.69;4964335;28;97597;-63
2022/12/13 03:33:26;;;;;;;26.05;12.65;;;;;;;3.33;51.13;100858.69;4964106;28;98971;-64
2022/12/13 03:35:54;;;;;;;26.30;11.65;;;;;;;3.58;50.19;100865.53;4966541;28;99048;-63
2022/12/13 03:38:21;;;;;;;25.58;11.82;;;;;;;2.79;51.94;100865.81;4963293;28;97851;-63
2022/12/13 03:40:47;;;;;;;24.20;10.77;;;;;;;3.22;51.40;100860.44;4960344;28;96911;-63
2022/12/13 03:43:14;;;;;;;25.55;12.57;;;;;;;3.42;50.90;100856.03;4966223;28;101156;-67
2022/12/13 03:45:40;;;;;;;24.90;11.57;;;;;;;3.19;51.10;100848.31;4963877;28;99193;-64
2022/12/13 03:48:07;;;;;;;28.85;12.23;;;;;;;3.36;51.16;100856.03;4959667;28;96770;-63
2022/12/13 03:50:33;;;;;;;26.80;13.00;;;;;;;3.63;50.74;100851.56;4965847;28;97165;-64
2022/12/13 03:53:02;;;;;;;25.23;11.63;;;;;;;3.71;49.67;100850.66;4962654;28;98952;-66
2022/12/13 03:55:29;;;;;;;24.90;11.98;;;;;;;3.17;51.39;100854.38;4965128;28;98744;-64
2022/12/13 03:57:56;;;;;;;22.88;11.85;;;;;;;3.33;50.81;100850.84;4964074;28;97212;-65
2022/12/13 04:00:23;;;;;;;26.02;11.88;;;;;;;3.31;51.00;100849.13;4960195;28;96752;-63
2022/12/13 04:02:49;;;;;;;26.85;13.77;;;;;;;3.32;51.07;100851.72;4956568;28;99008;-63
2022/12/13 04:05:15;;;;;;;23.17;12.10;;;;;;;3.52;50.46;100846.41;4969781;28;98767;-63
2022/12/13 04:07:42;;;;;;;25.77;12.32;;;;;;;3.92;50.07;100847.03;4967770;28;97038;-64
2022/12/13 04:10:10;;;;;;;24.95;12.48;;;;;;;4.06;49.21;100849.56;4970299;28;97575;-64
2022/12/13 04:15:20;;;;;;;22.88;11.85;;;;;;;4.01;49.05;100841.72;4963748;28;97176;-65
2022/12/13 04:17:47;;;;;;;24.08;11.68;;;;;;;3.96;49.38;100840.91;4965134;28;97694;-64
2022/12/13 04:20:13;;;;;;;19.35;10.30;;;;;;;3.79;49.26;100843.63;4963287;28;96795;-63
2022/12/13 04:22:39;;;;;;;22.73;10.38;;;;;;;3.71;49.63;100847.16;4968887;28;98975;-64
2022/12/13 04:25:06;;;;;;;23.67;11.73;;;;;;;3.91;49.28;100843.56;4966587;28;99384;-64
2022/12/13 04:27:36;;;;;;;24.38;10.80;;;;;;;3.60;49.80;100845.50;4973513;28;97835;-65
2022/12/13 04:30:04;;;;;;;22.50;11.40;;;;;;;3.86;49.68;100834.88;4969954;28;97059;-63
2022/12/13 04:32:30;;;;;;;28.50;11.80;;;;;;;3.88;49.14;100843.56;4963203;28;99213;-67
2022/12/13 04:34:56;;;;;;;26.30;11.88;;;;;;;3.90;49.11;100835.72;4964058;28;99494;-64
2022/12/13 04:37:23;;;;;;;24.05;11.32;;;;;;;3.89;48.97;100837.47;4970709;28;96911;-64
2022/12/13 04:39:50;;;;;;;23.38;11.93;;;;;;;3.96;48.77;100841.78;4972461;28;96900;-64
2022/12/13 04:42:16;;;;;;;27.67;12.25;;;;;;;3.87;48.37;100838.38;4970405;28;98927;-64
2022/12/13 04:44:44;;;;;;;24.40;12.30;;;;;;;3.93;49.01;100838.31;4969917;28;101067;-64
2022/12/13 04:47:10;;;;;;;25.83;11.27;;;;;;;4.09;48.61;100849.53;4966056;28;96751;-64
2022/12/13 04:49:37;;;;;;;23.40;11.77;;;;;;;4.12;48.31;100850.38;4973189;28;96860;-64
2022/12/13 04:52:04;;;;;;;21.88;10.85;;;;;;;3.85;48.29;100856.66;4970598;28;98944;-64
2022/12/13 04:54:32;;;;;;;22.92;11.85;;;;;;;3.91;48.26;100851.41;4969163;28;99156;-65
2022/12/13 04:56:58;;;;;;;25.52;11.35;;;;;;;4.13;48.07;100852.13;4969148;28;96727;-65
2022/12/13 04:59:25;;;;;;;21.50;10.70;;;;;;;3.77;48.52;100853.22;4966607;28;97947;-63
2022/12/13 05:01:53;;;;;;;20.80;10.77;;;;;;;3.81;48.87;100854.06;4969877;28;98922;-64
2022/12/13 05:04:19;;;;;;;20.30;9.55;;;;;;;3.35;49.49;100854.31;4968788;28;98861;-64
2022/12/13 05:06:46;;;;;;;23.92;11.07;;;;;;;3.61;49.29;100855.03;4967613;28;96884;-65
2022/12/13 05:09:13;;;;;;;23.90;12.00;;;;;;;3.63;49.80;100855.03;4967765;28;97086;-64
2022/12/13 05:11:39;;;;;;;25.38;11.43;;;;;;;3.85;49.14;100847.97;4967539;28;99517;-64
2022/12/13 05:14:05;;;;;;;24.65;12.18;;;;;;;4.06;49.46;100845.19;4966306;28;99211;-63
2022/12/13 05:16:32;;;;;;;28.42;12.90;;;;;;;4.09;48.94;100847.78;4963328;28;96889;-65
2022/12/13 05:19:00;;;;;;;24.60;11.40;;;;;;;4.13;48.83;100846.03;4961930;28;97008;-64
2022/12/13 05:21:26;;;;;;;24.80;11.52;;;;;;;3.79;49.22;100846.25;4967844;28;99200;-64
2022/12/13 05:23:53;;;;;;;23.42;11.30;;;;;;;3.86;49.13;100847.94;4962477;28;99525;-64
2022/12/13 05:26:19;;;;;;;26.45;11.38;;;;;;;3.76;49.55;100846.25;4974590;28;97264;-64
2022/12/13 05:28:46;;;;;;;24.10;12.18;;;;;;;3.70;50.21;100853.25;4966260;28;97053;-64
2022/12/13 05:31:12;;;;;;;22.48;10.93;;;;;;;3.72;49.59;100849.78;4967510;28;99138;-65
2022/12/13 05:33:39;;;;;;;21.40;11.57;;;;;;;3.81;49.51;100859.28;4959909;28;99094;-64
2022/12/13 05:36:08;;;;;;;27.17;12.20;;;;;;;3.60;50.20;100852.47;4968540;28;98745;-65
2022/12/13 05:38:35;;;;;;;25.10;12.05;;;;;;;3.72;50.01;100848.91;4967974;28;98604;-64
2022/12/13 05:41:01;;;;;;;25.52;12.88;;;;;;;3.67;49.38;100846.34;4966221;28;99583;-64
2022/12/13 05:43:28;;;;;;;26.38;12.68;;;;;;;3.72;49.71;100843.69;4963527;28;99252;-64
2022/12/13 05:45:54;;;;;;;23.60;11.63;;;;;;;4.05;49.27;100842.59;4970237;28;97551;-64
2022/12/13 05:48:21;;;;;;;25.98;11.40;;;;;;;4.06;48.72;100845.19;4968269;28;97057;-64
2022/12/13 05:50:47;;;;;;;24.15;12.48;;;;;;;3.92;48.99;100837.44;4966961;28;99271;-64
2022/12/13 05:53:16;;;;;;;24.17;11.20;;;;;;;3.93;48.90;100833.09;4960825;28;97786;-65
2022/12/13 05:55:43;;;;;;;23.85;12.30;;;;;;;3.93;48.46;100835.72;4961804;28;97193;-64
2022/12/13 05:58:11;;;;;;;24.30;11.35;;;;;;;3.82;48.82;100835.75;4966574;28;96963;-64
2022/12/13 06:00:38;;;;;;;23.13;11.43;;;;;;;3.94;48.55;100847.88;4968289;28;101910;-65
2022/12/13 06:03:04;;;;;;;22.55;12.65;;;;;;;3.92;48.88;100831.34;4968464;28;99190;-63
2022/12/13 06:05:31;;;;;;;21.30;11.60;;;;;;;3.93;48.77;100839.19;4960972;28;96911;-65
2022/12/13 06:07:58;;;;;;;25.92;11.18;;;;;;;3.93;48.51;100844.41;4967773;28;99044;-65
2022/12/13 06:10:26;;;;;;;24.15;11.50;;;;;;;3.92;49.05;100832.22;4959490;28;99196;-65
2022/12/13 06:12:53;;;;;;;24.75;11.80;;;;;;;3.86;48.46;100841.84;4966350;28;99072;-65
2022/12/13 06:15:19;;;;;;;28.35;12.48;;;;;;;3.67;49.33;100840.25;4956746;28;96762;-65
2022/12/13 06:17:46;;;;;;;24.05;12.10;;;;;;;3.82;48.91;100851.44;4965357;28;97326;-65
2022/12/13 06:20:12;;;;;;;29.60;12.77;;;;;;;3.97;49.17;100848.75;4961438;28;99352;-65
2022/12/13 06:22:38;;;;;;;26.42;12.23;;;;;;;3.68;49.07;100860.25;4963908;28;100217;-64
2022/12/13 06:25:05;;;;;;;24.08;12.55;;;;;;;3.87;48.76;100869.75;4963734;28;97221;-63
2022/12/13 06:27:33;;;;;;;23.85;12.57;;;;;;;3.59;49.63;100864.66;4961349;28;98868;-63
2022/12/13 06:29:59;;;;;;;30.27;13.05;;;;;;;3.08;50.74;100867.50;4964621;28;99092;-63
2022/12/13 06:32:26;;;;;;;30.25;13.18;;;;;;;3.19;50.41;100863.97;4964885;28;98940;-63
2022/12/13 06:34:53;;;;;;;29.67;12.98;;;;;;;3.35;50.35;100869.97;4965491;28;98473;-64
2022/12/13 06:37:19;;;;;;;26.83;12.95;;;;;;;3.43;50.14;100869.94;4966063;28;96909;-64
2022/12/13 06:39:47;;;;;;;29.75;13.52;;;;;;;3.53;49.89;100864.69;4963793;28;98953;-64
2022/12/13 06:42:16;;;;;;;29.42;13.57;;;;;;;3.42;50.30;100870.81;4962698;28;98875;-63
2022/12/13 06:44:44;;;;;;;31.33;13.80;;;;;;;3.38;50.46;100869.97;4961974;28;96954;-63
2022/12/13 06:47:11;;;;;;;24.05;12.10;;;;;;;3.47;49.91;100874.31;4965372;28;98080;-65
2022/12/13 06:49:37;;;;;;;27.67;13.05;;;;;;;3.50;50.26;100872.53;4959650;28;98917;-67
2022/12/13 06:52:04;;;;;;;28.33;13.68;;;;;;;3.68;50.15;100870.69;4967203;28;99385;-65
2022/12/13 06:54:31;;;;;;;28.00;13.07;;;;;;;3.59;49.51;100877.72;4965297;28;98074;-63
2022/12/13 06:56:57;;;;;;;30.40;14.05;;;;;;;3.64;49.69;100888.16;4971032;28;96862;-66
2022/12/13 06:59:24;;;;;;;31.05;14.23;;;;;;;3.22;50.25;100886.56;4962129;28;99117;-63
2022/12/13 07:01:52;;;;;;;26.63;13.02;;;;;;;3.06;51.03;100893.59;4963320;28;98966;-65
2022/12/13 07:04:18;;;;;;;30.25;14.60;;;;;;;2.92;51.61;100900.59;4958254;28;96809;-65
2022/12/13 07:06:45;;;;;;;29.67;14.18;;;;;;;3.38;50.82;100898.72;4966412;28;97169;-64
2022/12/13 07:09:11;;;;;;;32.45;15.18;;;;;;;3.15;50.95;100892.72;4964768;28;98797;-64
2022/12/13 07:11:38;;;;;;;28.67;14.80;;;;;;;3.27;50.75;100891.81;4963453;28;99267;-66
2022/12/13 07:14:12;;;;;;;36.38;15.90;;;;;;;3.44;50.69;100901.31;4969353;28;96764;-64
2022/12/13 07:16:38;;;;;;;32.72;15.63;;;;;;;3.66;50.03;100896.84;4964980;28;97248;-65
2022/12/13 07:19:06;;;;;;;31.23;14.13;;;;;;;3.46;50.29;100899.56;4967856;28;99153;-65
2022/12/13 07:21:35;;;;;;;32.50;15.20;;;;;;;3.50;50.58;100901.28;4968730;28;99183;-65
2022/12/13 07:24:02;;;;;;;29.98;14.13;;;;;;;3.70;50.48;100895.09;4965459;28;97850;-65
2022/12/13 07:26:28;;;;;;;32.10;14.05;;;;;;;3.55;50.82;100904.72;4963313;28;96900;-64
2022/12/13 07:28:55;;;;;;;34.60;15.13;;;;;;;3.53;50.72;100903.88;4961445;28;99264;-64
2022/12/13 07:31:22;;;;;;;34.22;15.75;;;;;;;3.62;50.75;100910.78;4957598;28;99128;-64
2022/12/13 07:33:49;;;;;;;36.33;16.63;;;;;;;3.67;51.02;100914.28;4964075;28;96819;-64
2022/12/13 07:36:19;;;;;;;33.90;15.27;;;;;;;3.72;50.34;100909.03;4966906;28;96911;-65
2022/12/13 07:38:52;;;;;;;35.75;16.73;;;;;;;3.67;51.01;100913.41;4972892;28;98931;-64
2022/12/13 07:41:19;;;;;;;40.33;15.88;;;;;;;3.87;49.82;100915.00;4965209;28;98901;-64
2022/12/13 07:43:45;;;;;;;37.97;17.05;;;;;;;3.33;50.59;100928.34;4970223;28;96753;-64
2022/12/13 07:46:12;;;;;;;36.83;16.08;;;;;;;3.51;50.59;100917.81;4966818;28;97794;-65
2022/12/13 07:48:39;;;;;;;35.10;16.67;;;;;;;4.04;50.14;100925.41;4969600;28;98933;-68
2022/12/13 07:51:07;;;;;;;37.95;17.52;;;;;;;4.35;48.56;100919.06;4962813;28;99185;-64
2022/12/13 07:53:35;;;;;;;33.42;15.52;;;;;;;4.19;49.00;100924.44;4972587;28;97272;-65
2022/12/13 07:56:02;;;;;;;33.03;14.77;;;;;;;3.95;49.55;100928.91;4970914;28;96783;-63
2022/12/13 07:58:29;;;;;;;35.95;16.65;;;;;;;3.67;50.26;100929.97;4971524;28;100693;-65
2022/12/13 08:00:59;;;;;;;41.90;18.08;;;;;;;3.75;50.24;100933.38;4968392;28;99018;-65
2022/12/13 08:03:32;;;;;;;33.00;17.15;;;;;;;3.28;51.31;100924.88;4972235;28;97108;-71
2022/12/13 08:05:59;;;;;;;37.00;17.50;;;;;;;3.31;51.70;100924.84;4961602;28;96748;-72
2022/12/13 08:08:25;;;;;;;36.85;16.00;;;;;;;3.17;51.07;100927.50;4967550;28;101199;-73
2022/12/13 08:10:53;;;;;;;29.77;14.73;;;;;;;3.22;50.80;100932.75;4964229;28;98765;-72
2022/12/13 08:13:20;;;;;;;33.92;15.52;;;;;;;3.17;51.16;100933.59;4968925;28;96759;-72
2022/12/13 08:15:46;;;;;;;31.05;15.60;;;;;;;3.48;50.61;100939.59;4965130;28;96913;-72
2022/12/13 08:18:13;;;;;;;33.10;16.42;;;;;;;2.98;51.68;100939.72;4965071;28;97794;-71
2022/12/13 08:20:39;;;;;;;34.80;15.95;;;;;;;2.75;52.83;100944.13;4970282;28;98959;-72
2022/12/13 08:23:06;;;;;;;28.35;14.75;;;;;;;2.91;51.58;100937.13;4971457;28;97155;-72
2022/12/13 08:25:32;;;;;;;31.77;15.38;;;;;;;2.42;53.61;100949.34;4970959;28;96814;-71
2022/12/13 08:28:00;;;;;;;34.20;15.45;;;;;;;2.64;52.82;100938.88;4969045;28;98871;-72
2022/12/13 08:30:27;;;;;;;33.20;15.82;;;;;;;2.53;53.49;100944.97;4968444;28;98799;-73
2022/12/13 08:32:54;;;;;;;32.58;17.05;;;;;;;2.40;54.01;100941.50;4966933;28;97266;-72
2022/12/13 08:35:21;;;;;;;34.70;15.93;;;;;;;2.89;52.61;100939.72;4968850;28;96876;-73
2022/12/13 08:37:47;;;;;;;38.60;17.02;;;;;;;3.14;51.47;100941.47;4970606;28;101285;-72
2022/12/13 08:40:14;;;;;;;35.67;16.42;;;;;;;3.38;51.06;100947.47;4969251;28;99671;-72
2022/12/13 08:42:41;;;;;;;31.95;15.68;;;;;;;3.79;50.52;100950.81;4975526;28;97128;-71
2022/12/13 08:45:11;;;;;;;38.80;18.02;;;;;;;3.18;51.24;100950.13;4965135;28;96837;-72
2022/12/13 08:47:37;;;;;;;32.47;16.25;;;;;;;3.23;51.88;100951.00;4967951;28;99096;-72
2022/12/13 08:50:05;;;;;;;32.65;15.73;;;;;;;3.26;51.27;100957.97;4969295;28;98989;-73
2022/12/13 08:52:31;;;;;;;31.90;16.13;;;;;;;3.22;51.25;100957.94;4968687;28;97043;-72
2022/12/13 08:54:58;;;;;;;35.08;15.70;;;;;;;3.36;51.42;100955.31;4974601;28;96884;-71
2022/12/13 08:57:24;;;;;;;30.13;15.18;;;;;;;3.57;50.57;100957.84;4962292;28;99584;-72
2022/12/13 08:59:52;;;;;;;35.25;16.23;;;;;;;3.48;50.53;100959.63;4967876;28;98729;-71
2022/12/13 09:02:20;;;;;;;33.72;16.13;;;;;;;3.12;51.62;100953.63;4958903;28;97703;-73
2022/12/13 09:04:47;;;;;;;35.13;15.73;;;;;;;3.12;51.45;100960.59;4966818;28;97707;-72
2022/12/13 09:07:14;;;;;;;32.40;16.10;;;;;;;3.20;51.26;100958.84;4965283;28;98765;-72
2022/12/13 09:09:40;;;;;;;33.40;16.27;;;;;;;3.42;50.86;100957.91;4961806;28;99383;-72
2022/12/13 09:12:07;;;;;;;32.60;15.18;;;;;;;3.45;50.35;100960.50;4959861;28;96846;-71
2022/12/13 09:14:33;;;;;;;34.72;16.23;;;;;;;3.71;49.97;100962.16;4962228;28;97023;-71
2022/12/13 09:17:01;;;;;;;37.13;16.08;;;;;;;3.78;49.54;100953.41;4963498;28;99241;-72
2022/12/13 09:19:28;;;;;;;35.53;16.35;;;;;;;4.12;49.30;100954.13;4968112;28;98873;-73
2022/12/13 09:21:55;;;;;;;48.35;21.70;;;;;;;4.06;49.01;100957.66;4959775;28;96698;-72
2022/12/13 09:24:22;;;;;;;35.97;16.13;;;;;;;3.77;49.72;100970.84;4966158;28;97102;-71
2022/12/13 09:26:49;;;;;;;33.10;15.95;;;;;;;3.76;49.92;100968.22;4961729;28;98836;-72
2022/12/13 09:29:16;;;;;;;34.05;16.17;;;;;;;3.95;49.59;100964.66;4957123;28;99113;-72
2022/12/13 09:31:42;;;;;;;31.88;16.17;;;;;;;4.04;49.70;100974.22;4964698;28;97256;-72
2022/12/13 09:34:09;;;;;;;34.05;16.17;;;;;;;4.08;49.29;100968.06;4958978;28;96873;-73
2022/12/13 09:36:37;;;;;;;32.45;16.17;;;;;;;4.26;48.90;100968.00;4957966;28;99205;-73
2022/12/13 09:39:04;;;;;;;30.70;15.65;;;;;;;4.42;48.34;100967.00;4970115;28;98204;-73
2022/12/13 09:41:34;;;;;;;30.13;15.75;;;;;;;4.42;48.08;100961.75;4961005;28;97162;-71
2022/12/13 09:44:05;;;;;;;32.33;15.82;;;;;;;4.49;47.91;100959.97;4962388;28;98276;-72
2022/12/13 09:46:34;;;;;;;29.92;16.38;;;;;;;4.35;47.98;100955.69;4962015;28;99402;-73
2022/12/13 09:49:03;;;;;;;28.67;13.77;;;;;;;3.80;48.59;100967.38;4963153;28;99246;-72
2022/12/13 09:51:32;;;;;;;32.25;14.27;;;;;;;3.71;49.24;100957.81;4971745;28;96829;-72
2022/12/13 09:54:00;;;;;;;32.95;16.15;;;;;;;3.71;49.45;100954.31;4965334;28;96980;-71
2022/12/13 09:56:28;;;;;;;31.67;15.07;;;;;;;4.14;48.81;100961.06;4964021;28;100130;-71
2022/12/13 09:58:56;;;;;;;31.83;15.43;;;;;;;3.98;49.18;100957.69;4966263;28;98911;-72
2022/12/13 10:01:23;;;;;;;34.65;16.17;;;;;;;3.92;49.09;100956.84;4961197;28;96880;-71
2022/12/13 10:03:51;;;;;;;34.53;16.20;;;;;;;3.98;49.04;100952.44;4958533;28;96983;-72
2022/12/13 10:06:20;;;;;;;32.17;14.40;;;;;;;3.88;48.78;100955.97;4971115;28;99762;-73
2022/12/13 10:08:49;;;;;;;27.15;14.07;;;;;;;3.93;49.05;100949.00;4965688;28;99194;-72
2022/12/13 10:11:19;;;;;;;32.97;15.00;;;;;;;3.76;49.37;100955.16;4968003;28;96779;-70
2022/12/13 10:13:52;;;;;;;31.30;14.10;;;;;;;3.70;49.46;100958.69;4970677;28;99112;-72
2022/12/13 10:16:27;;;;;;;32.17;14.65;;;;;;;3.71;49.48;100956.94;4968475;28;99506;-71
2022/12/13 10:18:54;;;;;;;34.97;14.15;;;;;;;3.24;49.89;100957.97;4965603;28;97636;-71
2022/12/13 10:21:27;;;;;;;27.13;13.13;;;;;;;3.18;50.68;100957.97;4972708;28;96910;-71
2022/12/13 10:23:54;;;;;;;27.65;13.93;;;;;;;3.24;50.32;100959.69;4961937;28;97029;-72
2022/12/13 10:26:22;;;;;;;35.58;14.35;;;;;;;3.50;50.02;100947.44;4960685;28;99268;-74
2022/12/13 10:28:50;;;;;;;32.70;13.38;;;;;;;3.37;50.26;100954.44;4962485;28;99226;-71
2022/12/13 10:31:18;;;;;;;31.58;13.93;;;;;;;3.69;49.49;100943.88;4970595;28;97600;-71
2022/12/13 10:33:55;;;;;;;29.52;14.57;;;;;;;4.04;49.16;100946.31;4965927;28;96830;-71
2022/12/13 10:36:32;;;;;;;26.63;13.02;;;;;;;4.17;48.25;100942.75;4967132;28;98987;-74
2022/12/13 10:38:59;;;;;;;30.38;14.48;;;;;;;4.38;47.93;100947.84;4963461;28;99201;-71
2022/12/13 10:41:37;;;;;;;28.25;13.70;;;;;;;4.30;47.86;100939.19;4965116;28;96865;-72
2022/12/13 10:44:26;;;;;;;29.00;13.65;;;;;;;4.33;47.76;100938.28;4965784;28;97128;-71
2022/12/13 10:47:03;;;;;;;27.98;12.70;;;;;;;4.41;47.19;100937.34;4966253;28;98876;-72
2022/12/13 10:49:40;;;;;;;25.00;12.90;;;;;;;4.16;47.85;100941.00;4961611;28;98998;-72
2022/12/13 10:52:20;;;;;;;27.17;12.98;;;;;;;4.57;47.25;100934.63;4964914;28;96863;-71
2022/12/13 10:54:49;;;;;;;36.58;13.88;;;;;;;4.55;47.34;100931.13;4962479;28;97620;-72
2022/12/13 10:57:17;;;;;;;25.15;13.07;;;;;;;4.65;46.88;100930.19;4965552;28;98949;-72
2022/12/13 10:59:45;;;;;;;30.63;13.18;;;;;;;4.29;47.35;100937.44;4971348;28;99406;-73
2022/12/13 11:02:29;;;;;;;28.30;14.15;;;;;;;4.59;46.58;100927.63;4966352;28;98707;-72
2022/12/13 11:04:57;;;;;;;31.92;14.02;;;;;;;4.61;46.35;100926.72;4967944;28;96736;-73
2022/12/13 11:07:27;;;;;;;26.88;13.07;;;;;;;4.85;46.21;100928.28;4969515;28;98905;-73
2022/12/13 11:09:53;;;;;;;36.03;13.23;;;;;;;4.93;45.97;100926.41;4963633;28;100298;-72
2022/12/13 11:12:24;;;;;;;48.78;15.23;;;;;;;4.64;46.18;100929.31;4965110;28;96921;-71
2022/12/13 11:14:55;;;;;;;27.35;12.38;;;;;;;4.99;45.69;100928.13;4967989;28;96881;-72
2022/12/13 11:17:26;;;;;;;26.58;12.68;;;;;;;4.80;45.99;100925.66;4966144;28;98950;-73
2022/12/13 11:19:55;;;;;;;29.40;12.82;;;;;;;4.45;47.11;100930.34;4961522;28;99472;-72
2022/12/13 11:22:24;;;;;;;23.67;12.00;;;;;;;4.69;45.72;100924.03;4968861;28;97332;-72
2022/12/13 11:24:59;;;;;;;21.02;11.50;;;;;;;4.36;46.44;100926.03;4962760;28;97492;-73
2022/12/13 11:27:49;;;;;;;23.98;12.00;;;;;;;3.88;47.78;100924.59;4966527;28;99008;-72
2022/12/13 11:30:21;;;;;;;23.10;11.60;;;;;;;4.09;47.69;100934.06;4969606;28;101725;-72